Time;durP1;ratioP1;P1;durP2;ratioP2;P2;SDS_P1;SDS_P2;PMS_P1;PMS_P2;Temp;Humidity;BMP_temperature;BMP_pressure;BME280_temperature;BME280_humidity;BME280_pressure;Samples;Min_cycle;Max_cycle;Signal;HPM_P1;HPM_P2
2022/01/31 00:00:44;;;;;;;11.10;4.00;;;22.80;38.50;;;;;;6052521;28;80378;-63
2022/01/31 00:03:46;;;;;;;13.23;4.90;;;22.90;38.60;;;;;;6053690;28;80639;-63
2022/01/31 00:06:48;;;;;;;17.10;4.50;;;22.90;38.50;;;;;;6052060;28;82439;-63
2022/01/31 00:09:49;;;;;;;10.48;4.07;;;22.80;38.40;;;;;;6047741;28;80452;-64
2022/01/31 00:12:55;;;;;;;11.43;4.75;;;22.80;38.40;;;;;;6053410;28;83255;-63
2022/01/31 00:15:57;;;;;;;8.02;3.60;;;22.80;38.40;;;;;;6057446;28;82689;-63
2022/01/31 00:18:58;;;;;;;11.05;4.25;;;22.80;38.50;;;;;;6057644;28;80592;-64
2022/01/31 00:21:58;;;;;;;14.07;4.60;;;22.80;38.60;;;;;;6060836;28;87168;-63
2022/01/31 00:24:59;;;;;;;12.40;4.30;;;22.80;38.70;;;;;;6073512;28;80399;-63
2022/01/31 00:27:59;;;;;;;10.90;4.07;;;22.80;38.60;;;;;;6054954;28;80766;-63
2022/01/31 00:31:00;;;;;;;8.80;3.42;;;22.80;38.60;;;;;;6053957;28;80932;-63
2022/01/31 00:34:00;;;;;;;13.20;4.10;;;22.80;38.70;;;;;;6060883;28;80953;-65
2022/01/31 00:37:01;;;;;;;9.48;4.10;;;22.80;38.80;;;;;;6056600;28;80460;-63
2022/01/31 00:40:02;;;;;;;10.00;3.55;;;22.80;38.70;;;;;;6050083;28;80682;-64
2022/01/31 00:43:03;;;;;;;13.00;4.47;;;22.80;38.80;;;;;;6061117;28;81737;-64
2022/01/31 00:46:10;;;;;;;12.52;4.53;;;22.80;38.80;;;;;;6062493;28;82731;-64
2022/01/31 00:49:27;;;;;;;15.02;4.40;;;22.80;39.00;;;;;;6054354;28;80916;-64
2022/01/31 00:52:28;;;;;;;9.90;3.80;;;22.80;38.90;;;;;;6052187;28;83297;-62
2022/01/31 00:55:28;;;;;;;10.85;3.85;;;22.70;38.80;;;;;;6061774;28;80249;-64
2022/01/31 00:58:29;;;;;;;10.18;4.32;;;22.80;39.10;;;;;;6061220;28;80327;-64
2022/01/31 01:01:29;;;;;;;9.93;3.80;;;22.70;39.00;;;;;;6060059;28;81169;-63
2022/01/31 01:04:31;;;;;;;11.75;3.88;;;22.70;38.90;;;;;;6066853;28;83487;-63
2022/01/31 01:07:31;;;;;;;12.68;4.47;;;22.70;38.90;;;;;;6061816;28;83201;-64
2022/01/31 01:10:32;;;;;;;12.23;4.30;;;22.70;38.90;;;;;;6050442;28;81629;-63
2022/01/31 01:13:33;;;;;;;12.20;3.90;;;22.70;38.90;;;;;;6066235;28;80678;-64
2022/01/31 01:16:34;;;;;;;10.45;3.70;;;22.70;38.60;;;;;;6048922;28;80985;-63
2022/01/31 01:19:34;;;;;;;10.68;4.13;;;22.70;38.60;;;;;;6066117;28;80723;-64
2022/01/31 01:22:35;;;;;;;9.40;3.95;;;22.70;38.60;;;;;;6064199;28;81619;-64
2022/01/31 01:25:36;;;;;;;8.45;3.63;;;22.70;38.60;;;;;;6063273;28;82125;-64
2022/01/31 01:28:37;;;;;;;10.10;3.83;;;22.70;38.70;;;;;;6051114;28;81740;-63
2022/01/31 01:31:38;;;;;;;8.70;3.72;;;22.70;38.80;;;;;;6039393;28;83580;-63
2022/01/31 01:34:39;;;;;;;8.73;3.42;;;22.70;38.90;;;;;;6058247;28;80194;-64
2022/01/31 01:37:39;;;;;;;8.32;3.78;;;22.70;39.30;;;;;;6064724;28;80548;-64
2022/01/31 01:40:40;;;;;;;11.20;4.05;;;22.70;38.90;;;;;;6066439;28;80655;-63
2022/01/31 01:43:43;;;;;;;11.23;4.00;;;22.70;38.80;;;;;;6063599;28;83685;-63
2022/01/31 01:46:43;;;;;;;10.05;3.33;;;22.70;39.00;;;;;;6047793;28;83655;-64
2022/01/31 01:49:44;;;;;;;11.23;3.97;;;22.70;39.00;;;;;;6058520;28;81962;-63
2022/01/31 01:52:45;;;;;;;10.90;3.70;;;22.70;39.00;;;;;;6043119;28;83159;-63
2022/01/31 01:55:46;;;;;;;11.23;4.03;;;22.80;39.00;;;;;;6063408;28;82206;-63
2022/01/31 01:58:49;;;;;;;13.50;4.03;;;22.80;38.90;;;;;;6048957;28;83308;-64
2022/01/31 02:01:49;;;;;;;8.68;3.83;;;22.70;38.90;;;;;;6054698;28;83251;-63
2022/01/31 02:04:50;;;;;;;9.30;3.60;;;22.80;38.80;;;;;;6044009;28;83279;-62
2022/01/31 02:08:07;;;;;;;10.95;3.40;;;22.80;38.70;;;;;;6051347;28;88459;-63
2022/01/31 02:11:07;;;;;;;7.45;3.13;;;22.70;38.70;;;;;;6070859;28;82391;-63
2022/01/31 02:14:13;;;;;;;12.20;4.15;;;22.70;38.50;;;;;;6055890;28;83603;-66
2022/01/31 02:17:32;;;;;;;8.38;3.40;;;22.70;38.60;;;;;;6073440;28;80612;-64
2022/01/31 02:20:40;;;;;;;11.52;3.45;;;22.70;38.70;;;;;;6049328;28;83058;-64
2022/01/31 02:23:42;;;;;;;11.15;3.33;;;22.70;38.60;;;;;;6057568;28;82378;-65
2022/01/31 02:27:06;;;;;;;9.68;3.13;;;22.80;38.70;;;;;;6049559;28;82800;-64
2022/01/31 02:30:07;;;;;;;11.50;4.00;;;22.70;38.70;;;;;;6059498;28;83176;-63
2022/01/31 02:33:12;;;;;;;8.40;3.03;;;22.70;38.70;;;;;;6061906;28;81943;-64
2022/01/31 02:36:12;;;;;;;8.18;3.08;;;22.70;38.80;;;;;;6047657;28;82083;-64
2022/01/31 02:39:13;;;;;;;10.07;3.33;;;22.70;38.70;;;;;;6038762;28;83181;-64
2022/01/31 02:42:13;;;;;;;7.78;3.45;;;22.70;38.60;;;;;;6036661;28;83371;-64
2022/01/31 02:45:14;;;;;;;9.40;3.13;;;22.70;38.60;;;;;;6046792;28;82576;-65
2022/01/31 02:48:18;;;;;;;10.88;3.45;;;22.70;38.70;;;;;;6030133;28;81973;-64
2022/01/31 02:51:24;;;;;;;6.53;2.60;;;22.70;38.60;;;;;;6022788;28;81738;-64
2022/01/31 02:54:25;;;;;;;8.07;3.42;;;22.70;38.50;;;;;;6025223;28;80126;-64
2022/01/31 02:57:26;;;;;;;9.48;3.55;;;22.70;38.50;;;;;;6026286;28;82885;-64
2022/01/31 03:00:26;;;;;;;6.93;2.85;;;22.60;38.40;;;;;;6021798;29;83165;-64
2022/01/31 03:03:53;;;;;;;;;;;22.70;38.40;;;;;;6027619;28;81734;-64
2022/01/31 03:06:55;;;;;;;11.40;4.20;;;22.60;38.30;;;;;;6028311;29;82981;-63
2022/01/31 03:09:58;;;;;;;7.00;2.90;;;22.70;38.30;;;;;;6004438;28;80801;-64
2022/01/31 03:13:01;;;;;;;8.30;3.08;;;22.70;38.40;;;;;;6023470;28;83396;-63
2022/01/31 03:16:06;;;;;;;9.20;3.40;;;22.70;38.40;;;;;;6014392;29;82967;-63
2022/01/31 03:19:27;;;;;;;8.48;3.28;;;22.70;38.40;;;;;;6032698;29;82090;-63
2022/01/31 03:22:31;;;;;;;11.90;3.25;;;22.70;38.30;;;;;;6031489;28;83297;-63
2022/01/31 03:25:33;;;;;;;8.68;3.13;;;22.60;38.10;;;;;;6037082;28;81558;-63
2022/01/31 03:28:34;;;;;;;11.13;3.90;;;22.70;38.10;;;;;;6040046;28;83092;-63
2022/01/31 03:31:34;;;;;;;8.13;3.25;;;22.70;37.90;;;;;;6046925;28;80427;-64
2022/01/31 03:34:35;;;;;;;8.73;2.67;;;22.70;37.70;;;;;;6038076;28;80242;-64
2022/01/31 03:37:35;;;;;;;8.27;2.95;;;22.60;37.60;;;;;;6050007;28;80907;-64
2022/01/31 03:40:36;;;;;;;9.98;3.10;;;22.70;37.60;;;;;;6063891;28;81470;-64
2022/01/31 03:43:37;;;;;;;5.95;2.72;;;22.60;37.50;;;;;;6060200;28;82762;-64
2022/01/31 03:46:38;;;;;;;11.93;3.60;;;22.60;37.30;;;;;;6046446;28;82752;-64
2022/01/31 03:49:39;;;;;;;4.03;2.40;;;22.60;37.50;;;;;;6031231;28;83243;-64
2022/01/31 03:52:44;;;;;;;10.90;2.95;;;22.60;37.40;;;;;;6060131;28;83183;-64
2022/01/31 03:55:44;;;;;;;8.27;2.67;;;22.60;37.30;;;;;;6046506;28;83613;-63
2022/01/31 03:58:45;;;;;;;7.70;2.78;;;22.60;37.30;;;;;;6049312;28;82950;-63
2022/01/31 04:01:48;;;;;;;16.88;3.78;;;22.60;37.20;;;;;;6049462;28;83581;-63
2022/01/31 04:04:49;;;;;;;10.80;3.28;;;22.60;37.20;;;;;;6072342;28;80546;-63
2022/01/31 04:07:49;;;;;;;7.30;3.05;;;22.60;37.20;;;;;;6048952;28;82319;-63
2022/01/31 04:10:50;;;;;;;12.50;3.00;;;22.60;37.50;;;;;;6047335;28;80274;-64
2022/01/31 04:13:50;;;;;;;6.80;2.47;;;22.60;36.80;;;;;;6064412;28;80826;-64
2022/01/31 04:16:53;;;;;;;7.30;3.10;;;22.60;36.80;;;;;;6076419;28;80698;-64
2022/01/31 04:19:53;;;;;;;7.97;3.13;;;22.60;36.60;;;;;;6065576;28;80603;-63
2022/01/31 04:22:59;;;;;;;8.57;2.78;;;22.70;36.90;;;;;;6069992;28;84970;-63
2022/01/31 04:26:10;;;;;;;7.00;2.70;;;22.70;36.20;;;;;;6063782;28;80172;-64
2022/01/31 04:29:14;;;;;;;6.05;2.63;;;22.80;36.10;;;;;;6073804;28;80956;-63
2022/01/31 04:32:15;;;;;;;7.13;2.88;;;22.80;35.90;;;;;;6072503;28;80367;-63
2022/01/31 04:35:15;;;;;;;7.70;2.80;;;22.80;35.80;;;;;;6067977;28;80408;-64
2022/01/31 04:38:16;;;;;;;9.93;2.85;;;22.90;35.80;;;;;;6067769;28;80356;-64
2022/01/31 04:41:16;;;;;;;12.18;2.97;;;22.90;35.70;;;;;;6052057;28;80363;-64
2022/01/31 04:44:17;;;;;;;7.10;2.58;;;22.90;35.70;;;;;;6068034;28;80470;-64
2022/01/31 04:47:18;;;;;;;8.93;2.97;;;22.90;35.60;;;;;;6062119;28;80513;-63
2022/01/31 04:50:18;;;;;;;6.35;2.42;;;22.90;35.60;;;;;;6061497;28;80113;-64
2022/01/31 04:53:19;;;;;;;8.98;2.55;;;23.00;35.50;;;;;;6063966;28;83184;-64
2022/01/31 04:56:19;;;;;;;11.27;3.42;;;23.00;35.50;;;;;;6062536;28;80258;-64
2022/01/31 04:59:19;;;;;;;8.32;3.03;;;23.00;35.50;;;;;;6066800;28;80807;-64
2022/01/31 05:02:20;;;;;;;9.23;3.35;;;23.00;35.40;;;;;;6071285;28;80243;-64
2022/01/31 05:05:21;;;;;;;6.80;2.42;;;23.00;35.30;;;;;;6074530;28;80845;-64
2022/01/31 05:08:25;;;;;;;9.32;3.30;;;23.00;35.40;;;;;;6052026;28;80457;-64
2022/01/31 05:11:26;;;;;;;8.23;3.00;;;23.00;35.20;;;;;;6066287;28;80691;-63
2022/01/31 05:14:26;;;;;;;8.30;2.75;;;23.10;35.10;;;;;;6047179;28;80401;-64
2022/01/31 05:17:27;;;;;;;9.13;3.25;;;23.10;35.10;;;;;;6065466;28;80502;-63
2022/01/31 05:20:27;;;;;;;11.13;3.22;;;23.10;35.00;;;;;;6059495;28;80631;-63
2022/01/31 05:23:29;;;;;;;12.55;3.17;;;23.10;34.90;;;;;;6069069;28;80636;-64
2022/01/31 05:26:30;;;;;;;9.57;3.55;;;23.10;34.90;;;;;;6060093;28;80647;-64
2022/01/31 05:29:30;;;;;;;10.80;3.20;;;23.10;34.70;;;;;;6064527;28;80443;-63
2022/01/31 05:32:31;;;;;;;11.77;3.17;;;23.10;34.70;;;;;;6064995;28;80828;-64
2022/01/31 05:35:31;;;;;;;8.30;2.88;;;23.10;34.70;;;;;;6062358;28;80465;-63
2022/01/31 05:38:35;;;;;;;8.02;2.92;;;23.20;35.20;;;;;;6058858;28;80790;-62
2022/01/31 05:41:36;;;;;;;8.55;3.13;;;23.20;34.90;;;;;;6056382;28;80879;-64
2022/01/31 05:44:36;;;;;;;6.85;3.05;;;23.20;35.00;;;;;;6056594;28;81395;-62
2022/01/31 05:47:37;;;;;;;13.50;2.78;;;23.20;34.90;;;;;;6063061;28;80197;-64
2022/01/31 05:50:37;;;;;;;8.35;3.05;;;23.20;35.00;;;;;;6063455;28;80849;-63
2022/01/31 05:53:38;;;;;;;10.63;3.78;;;23.20;35.10;;;;;;6059445;28;82907;-64
2022/01/31 05:56:38;;;;;;;12.18;3.50;;;23.30;34.90;;;;;;6050727;28;80752;-63
2022/01/31 05:59:39;;;;;;;14.93;4.03;;;23.30;34.80;;;;;;6058010;28;81264;-64
2022/01/31 06:02:39;;;;;;;15.43;3.40;;;23.30;35.00;;;;;;6058209;28;81630;-63
2022/01/31 06:05:42;;;;;;;8.57;3.13;;;23.40;35.80;;;;;;6058708;28;83710;-63
2022/01/31 06:08:47;;;;;;;5.82;2.17;;;23.30;36.90;;;;;;6055595;28;81787;-62
2022/01/31 06:11:51;;;;;;;6.63;2.30;;;23.30;38.40;;;;;;6054427;28;80666;-66
2022/01/31 06:14:56;;;;;;;5.32;2.35;;;23.20;39.90;;;;;;6054394;28;80790;-63
2022/01/31 06:17:56;;;;;;;4.50;2.15;;;23.20;40.60;;;;;;6046338;28;81719;-62
2022/01/31 06:20:57;;;;;;;8.40;2.45;;;23.20;40.60;;;;;;6056296;28;81428;-64
2022/01/31 06:23:57;;;;;;;5.47;2.22;;;23.20;40.50;;;;;;6049642;28;80641;-63
2022/01/31 06:26:59;;;;;;;5.05;1.95;;;23.20;41.40;;;;;;6044513;28;81578;-63
2022/01/31 06:30:00;;;;;;;7.03;1.95;;;23.20;41.40;;;;;;6021628;28;83479;-65
2022/01/31 06:33:02;;;;;;;6.45;2.67;;;23.20;41.80;;;;;;6059788;28;82673;-63
2022/01/31 06:36:03;;;;;;;6.57;2.80;;;23.10;42.80;;;;;;6054086;28;81991;-62
2022/01/31 06:39:03;;;;;;;3.67;1.77;;;23.10;43.30;;;;;;6059589;28;80470;-63
2022/01/31 06:42:04;;;;;;;6.13;2.20;;;23.20;43.60;;;;;;6040100;28;80648;-63
2022/01/31 06:45:04;;;;;;;7.25;2.15;;;23.20;43.80;;;;;;6056119;28;80874;-63
2022/01/31 06:48:05;;;;;;;3.30;2.15;;;23.20;43.90;;;;;;6053931;28;80771;-63
2022/01/31 06:51:05;;;;;;;5.90;1.92;;;23.20;44.10;;;;;;6054310;28;80938;-61
2022/01/31 06:54:07;;;;;;;5.80;1.80;;;23.30;44.40;;;;;;6063736;28;80548;-62
2022/01/31 06:57:07;;;;;;;5.90;2.15;;;23.30;44.30;;;;;;6065005;28;80455;-62
2022/01/31 07:00:08;;;;;;;3.83;1.75;;;23.30;44.60;;;;;;6062673;28;80688;-63
2022/01/31 07:03:12;;;;;;;4.40;2.20;;;23.30;44.60;;;;;;6063445;28;88271;-63
2022/01/31 07:06:13;;;;;;;8.32;2.75;;;23.20;44.60;;;;;;6057335;28;81093;-63
2022/01/31 07:09:14;;;;;;;8.18;2.45;;;23.20;44.60;;;;;;6055381;28;80390;-63
2022/01/31 07:12:16;;;;;;;10.52;2.15;;;23.20;44.30;;;;;;6062411;28;81018;-64
2022/01/31 07:15:17;;;;;;;7.82;2.38;;;23.20;44.40;;;;;;6061631;28;80564;-68
2022/01/31 07:18:18;;;;;;;6.60;2.47;;;23.20;43.80;;;;;;6062581;28;80387;-67
2022/01/31 07:21:18;;;;;;;8.07;2.78;;;23.20;43.20;;;;;;6054481;28;80553;-65
2022/01/31 07:24:42;;;;;;;6.25;2.30;;;23.20;43.20;;;;;;6063117;28;80993;-68
2022/01/31 07:27:42;;;;;;;8.30;2.60;;;23.20;42.90;;;;;;6056286;28;80738;-67
2022/01/31 07:30:43;;;;;;;7.68;2.47;;;23.20;43.00;;;;;;6062617;28;81073;-67
2022/01/31 07:33:43;;;;;;;6.28;2.58;;;23.20;42.60;;;;;;6057272;28;80225;-68
2022/01/31 07:36:44;;;;;;;6.45;2.20;;;23.10;41.80;;;;;;6058303;28;81224;-69
2022/01/31 07:39:44;;;;;;;8.60;2.88;;;23.10;42.00;;;;;;6058878;28;81347;-68
2022/01/31 07:42:46;;;;;;;5.55;2.60;;;23.10;42.10;;;;;;6060624;28;80630;-67
2022/01/31 07:45:46;;;;;;;6.80;3.05;;;23.10;42.10;;;;;;6062013;28;80675;-67
2022/01/31 07:48:49;;;;;;;8.05;2.95;;;23.10;41.90;;;;;;6059591;28;80634;-66
2022/01/31 07:51:49;;;;;;;9.60;3.50;;;23.00;41.80;;;;;;6060260;28;81193;-67
2022/01/31 07:54:50;;;;;;;4.60;2.60;;;23.00;42.00;;;;;;6044915;28;80752;-67
2022/01/31 07:57:50;;;;;;;4.90;2.67;;;23.00;41.70;;;;;;6060650;28;80675;-67
2022/01/31 08:00:51;;;;;;;8.77;3.05;;;23.10;41.80;;;;;;6065653;28;81238;-67
2022/01/31 08:03:51;;;;;;;11.40;3.35;;;23.00;41.50;;;;;;6062563;28;83258;-66
2022/01/31 08:06:52;;;;;;;8.38;3.17;;;23.00;41.80;;;;;;6062019;28;81608;-67
2022/01/31 08:09:52;;;;;;;13.35;3.65;;;23.00;41.80;;;;;;6057826;28;82689;-64
2022/01/31 08:12:55;;;;;;;7.90;2.97;;;23.00;42.10;;;;;;6064245;28;81946;-68
2022/01/31 08:19:08;;;;;;;7.15;3.00;;;23.00;41.80;;;;;;6057865;28;80945;-65
2022/01/31 08:22:08;;;;;;;6.32;3.10;;;23.00;41.90;;;;;;6064224;28;80713;-67
2022/01/31 08:25:14;;;;;;;6.80;2.85;;;22.90;41.80;;;;;;6047142;28;82418;-67
2022/01/31 08:28:14;;;;;;;11.00;3.57;;;22.90;41.70;;;;;;6066410;28;81927;-66
2022/01/31 08:31:19;;;;;;;10.05;3.90;;;22.90;41.70;;;;;;6053901;28;81223;-69
2022/01/31 08:34:24;;;;;;;14.95;4.10;;;22.80;41.60;;;;;;6061078;28;81017;-69
2022/01/31 08:37:25;;;;;;;7.93;3.47;;;22.80;41.50;;;;;;6064830;28;80891;-68
2022/01/31 08:40:26;;;;;;;7.53;2.95;;;22.80;41.90;;;;;;6060945;28;80575;-70
2022/01/31 08:43:26;;;;;;;11.48;3.35;;;22.80;42.10;;;;;;6063558;28;80528;-70
2022/01/31 08:46:27;;;;;;;10.63;3.70;;;22.80;42.40;;;;;;6065276;28;80729;-69
2022/01/31 08:49:27;;;;;;;8.77;3.70;;;22.80;42.50;;;;;;6058593;28;81890;-69
2022/01/31 08:52:28;;;;;;;9.00;3.20;;;22.80;42.10;;;;;;6049645;28;82311;-68
2022/01/31 08:55:28;;;;;;;8.77;3.10;;;22.80;42.00;;;;;;6059826;28;80396;-67
2022/01/31 08:58:29;;;;;;;10.63;3.88;;;22.80;42.30;;;;;;6043309;28;82123;-70
2022/01/31 09:01:29;;;;;;;7.68;3.72;;;22.80;42.40;;;;;;6064898;28;80387;-70
2022/01/31 09:04:35;;;;;;;8.48;3.60;;;22.80;42.30;;;;;;6056544;28;83429;-69
2022/01/31 09:07:35;;;;;;;10.07;4.18;;;22.70;42.20;;;;;;6050353;28;81006;-68
2022/01/31 09:10:36;;;;;;;11.65;3.97;;;22.70;42.20;;;;;;6066248;28;80752;-68
2022/01/31 09:13:36;;;;;;;8.05;3.67;;;22.70;42.30;;;;;;6065116;28;80895;-67
2022/01/31 09:16:37;;;;;;;7.38;3.63;;;22.70;42.50;;;;;;6059760;28;80911;-67
2022/01/31 09:19:37;;;;;;;10.65;3.60;;;22.70;42.50;;;;;;6059871;28;81048;-68
2022/01/31 09:22:38;;;;;;;10.93;4.07;;;22.70;42.50;;;;;;6057228;28;81050;-66
2022/01/31 09:25:44;;;;;;;11.27;3.95;;;22.70;42.70;;;;;;6051621;28;80354;-66
2022/01/31 09:28:44;;;;;;;10.50;4.28;;;22.80;42.70;;;;;;6056347;28;83762;-66
2022/01/31 09:31:45;;;;;;;9.32;4.03;;;22.70;43.00;;;;;;6053445;28;81484;-68
2022/01/31 09:34:45;;;;;;;14.98;4.70;;;22.80;42.60;;;;;;6056944;28;80632;-65
2022/01/31 09:37:46;;;;;;;18.23;5.55;;;22.80;42.60;;;;;;6053300;28;80856;-67
2022/01/31 09:40:46;;;;;;;11.32;4.75;;;22.80;42.30;;;;;;6057535;28;80904;-66
2022/01/31 09:49:51;;;;;;;11.70;5.40;;;22.80;41.50;;;;;;6064099;28;80820;-66
2022/01/31 09:52:51;;;;;;;17.33;7.03;;;22.80;41.20;;;;;;6040090;28;80364;-69
2022/01/31 09:55:53;;;;;;;19.33;6.63;;;22.80;40.80;;;;;;6054765;28;82996;-66
2022/01/31 09:58:53;;;;;;;16.80;7.35;;;22.90;40.70;;;;;;6056867;28;80457;-66
2022/01/31 10:01:55;;;;;;;86.30;40.97;;;22.90;40.60;;;;;;6056213;28;82009;-66
2022/01/31 10:04:56;;;;;;;189.50;91.72;;;22.90;40.50;;;;;;6053939;28;83512;-66
2022/01/31 10:07:56;;;;;;;173.95;82.63;;;23.00;40.50;;;;;;6056302;28;84131;-67
2022/01/31 10:11:00;;;;;;;133.50;66.90;;;23.00;40.30;;;;;;6052141;28;83430;-68
2022/01/31 10:17:20;;;;;;;108.10;49.97;;;23.00;40.20;;;;;;6050728;28;83129;-68
2022/01/31 10:20:20;;;;;;;92.90;45.70;;;23.00;40.00;;;;;;6047632;28;84012;-67
2022/01/31 10:23:21;;;;;;;81.25;36.88;;;23.00;39.80;;;;;;6056995;28;83440;-68
2022/01/31 10:26:21;;;;;;;73.15;33.55;;;23.00;39.70;;;;;;6053337;28;83226;-67
2022/01/31 10:29:22;;;;;;;58.47;28.58;;;23.00;39.60;;;;;;6058618;28;83375;-68
2022/01/31 10:32:27;;;;;;;57.45;26.25;;;23.00;39.80;;;;;;6058977;28;83299;-68
2022/01/31 10:35:28;;;;;;;60.42;25.10;;;23.00;39.80;;;;;;6055647;28;83465;-67
2022/01/31 10:38:36;;;;;;;46.70;21.65;;;23.00;39.80;;;;;;6056752;28;84745;-67
2022/01/31 10:45:10;;;;;;;41.17;17.50;;;22.90;39.20;;;;;;6046778;28;83187;-68
2022/01/31 10:54:40;;;;;;;24.48;11.75;;;22.90;38.90;;;;;;6053873;28;82989;-67
2022/01/31 10:57:41;;;;;;;26.55;10.75;;;22.90;39.10;;;;;;6033873;28;84135;-66
2022/01/31 11:00:41;;;;;;;27.85;10.95;;;22.90;39.00;;;;;;6056529;28;82902;-66
2022/01/31 11:03:45;;;;;;;21.77;9.65;;;22.90;39.60;;;;;;6055984;28;83301;-64
2022/01/31 11:06:45;;;;;;;22.75;8.95;;;22.90;40.00;;;;;;6055934;28;82777;-65
2022/01/31 11:09:46;;;;;;;20.02;8.23;;;22.90;40.10;;;;;;6050244;28;80953;-67
2022/01/31 11:12:46;;;;;;;19.73;9.02;;;22.90;40.60;;;;;;6061409;28;81435;-66
2022/01/31 11:15:47;;;;;;;16.42;7.82;;;22.90;40.50;;;;;;6073576;28;80569;-66
2022/01/31 11:18:47;;;;;;;18.35;7.65;;;22.90;40.60;;;;;;6063185;28;80690;-70
2022/01/31 11:21:49;;;;;;;18.10;7.07;;;22.90;40.60;;;;;;6053546;28;80743;-68
2022/01/31 11:24:49;;;;;;;18.65;7.57;;;22.90;40.70;;;;;;6056894;28;83750;-69
2022/01/31 11:27:50;;;;;;;16.98;7.80;;;22.80;40.90;;;;;;6058874;28;80332;-66
2022/01/31 11:30:51;;;;;;;16.05;7.72;;;22.80;40.80;;;;;;6045965;28;82612;-66
2022/01/31 11:33:51;;;;;;;20.90;7.75;;;22.80;41.20;;;;;;6053204;28;80942;-64
2022/01/31 11:36:52;;;;;;;27.60;10.15;;;22.80;41.80;;;;;;6054439;28;80591;-66
2022/01/31 11:39:53;;;;;;;35.08;12.25;;;22.80;42.80;;;;;;6054416;28;83139;-66
2022/01/31 11:42:53;;;;;;;34.85;11.60;;;22.80;43.30;;;;;;6058482;28;84535;-67
2022/01/31 11:45:54;;;;;;;60.85;17.17;;;22.80;43.90;;;;;;6057845;28;83666;-66
2022/01/31 11:48:54;;;;;;;52.03;15.88;;;22.80;45.00;;;;;;6057904;28;83178;-66
2022/01/31 11:51:55;;;;;;;73.20;19.48;;;22.80;45.60;;;;;;6049560;28;84304;-67
2022/01/31 11:54:56;;;;;;;74.53;21.00;;;22.80;45.90;;;;;;6046221;28;83678;-66
2022/01/31 11:57:57;;;;;;;85.40;23.30;;;22.80;46.30;;;;;;6042903;28;83320;-67
2022/01/31 12:00:57;;;;;;;80.85;22.05;;;22.80;46.90;;;;;;6052155;28;83313;-66
2022/01/31 12:03:58;;;;;;;69.78;21.75;;;22.80;47.20;;;;;;6032319;28;83580;-66
2022/01/31 12:06:59;;;;;;;83.18;25.17;;;22.80;47.30;;;;;;6048923;28;83333;-67
2022/01/31 12:09:59;;;;;;;100.40;32.47;;;22.80;47.60;;;;;;6071113;28;83021;-67
2022/01/31 12:16:23;;;;;;;85.20;33.92;;;22.80;47.10;;;;;;6050385;28;83789;-67
2022/01/31 12:22:40;;;;;;;78.65;31.10;;;22.80;46.60;;;;;;6057823;28;90689;-66
2022/01/31 12:25:42;;;;;;;78.45;31.48;;;22.80;46.50;;;;;;6055115;28;84111;-65
2022/01/31 12:28:43;;;;;;;73.68;29.63;;;22.80;46.30;;;;;;6059550;28;83364;-66
2022/01/31 12:31:43;;;;;;;68.38;29.10;;;22.80;46.20;;;;;;6055494;28;83435;-67
2022/01/31 12:34:44;;;;;;;70.82;29.52;;;22.80;46.00;;;;;;6044212;28;83348;-66
2022/01/31 12:37:44;;;;;;;66.63;27.73;;;22.80;46.20;;;;;;6050059;28;83384;-67
2022/01/31 12:40:51;;;;;;;67.38;25.52;;;22.80;46.10;;;;;;6054431;28;82920;-67
2022/01/31 12:43:56;;;;;;;63.85;26.33;;;22.90;45.00;;;;;;6052912;28;84404;-68
2022/01/31 12:46:57;;;;;;;56.35;23.00;;;22.90;44.50;;;;;;6061615;28;83548;-67
2022/01/31 12:49:57;;;;;;;59.50;24.33;;;22.90;43.70;;;;;;6054759;28;83404;-67
2022/01/31 12:53:03;;;;;;;50.20;21.30;;;22.80;43.50;;;;;;6046555;28;83539;-67
2022/01/31 12:56:06;;;;;;;45.10;20.58;;;22.90;42.40;;;;;;6060964;28;83044;-67
2022/01/31 12:59:06;;;;;;;50.35;20.23;;;22.90;42.80;;;;;;6060062;28;83095;-67
2022/01/31 13:02:07;;;;;;;42.97;18.20;;;22.90;42.40;;;;;;6061091;28;83913;-67
2022/01/31 13:05:07;;;;;;;44.33;19.05;;;22.90;41.90;;;;;;6055922;28;84278;-64
2022/01/31 13:08:08;;;;;;;40.20;17.02;;;22.90;41.90;;;;;;6047964;28;83154;-66
2022/01/31 13:11:08;;;;;;;39.22;16.25;;;23.00;41.30;;;;;;6053425;28;84396;-67
2022/01/31 13:14:09;;;;;;;42.53;17.17;;;22.90;41.20;;;;;;6052122;28;83739;-67
2022/01/31 13:17:14;;;;;;;50.60;16.83;;;22.90;41.00;;;;;;6052798;28;83323;-66
2022/01/31 13:20:15;;;;;;;34.70;15.55;;;22.90;40.80;;;;;;6054406;28;82815;-66
2022/01/31 13:23:15;;;;;;;32.67;13.55;;;23.00;40.60;;;;;;6055691;28;83836;-68
2022/01/31 13:26:16;;;;;;;33.60;14.27;;;23.00;40.50;;;;;;6050667;28;83238;-67
2022/01/31 13:29:16;;;;;;;27.40;12.65;;;23.00;40.10;;;;;;6052582;28;83009;-66
2022/01/31 13:32:17;;;;;;;27.38;12.27;;;23.00;40.40;;;;;;6054176;28;83340;-67
2022/01/31 13:35:17;;;;;;;31.52;12.23;;;23.00;39.60;;;;;;6051420;28;83202;-66
2022/01/31 13:38:21;;;;;;;27.88;11.60;;;23.10;39.50;;;;;;6053308;28;84662;-67
2022/01/31 13:41:24;;;;;;;27.77;11.48;;;23.00;39.40;;;;;;6052394;28;84254;-67
2022/01/31 13:44:25;;;;;;;30.08;12.43;;;23.00;39.80;;;;;;6050499;28;85986;-67
2022/01/31 13:47:26;;;;;;;29.50;11.65;;;23.10;38.90;;;;;;6055996;28;83480;-67
2022/01/31 13:50:28;;;;;;;25.98;11.05;;;23.10;38.60;;;;;;6059624;28;83312;-68
2022/01/31 13:53:28;;;;;;;25.60;10.35;;;23.00;38.20;;;;;;6060142;28;83281;-67
2022/01/31 13:56:29;;;;;;;29.95;10.30;;;23.10;38.30;;;;;;6043561;28;83112;-66
2022/01/31 13:59:29;;;;;;;29.98;10.43;;;23.00;38.10;;;;;;6055194;28;83399;-67
2022/01/31 14:02:30;;;;;;;25.88;10.20;;;23.00;37.80;;;;;;6062536;28;83032;-67
2022/01/31 14:05:30;;;;;;;26.00;10.18;;;23.10;37.80;;;;;;6053400;28;83279;-68
2022/01/31 14:08:36;;;;;;;26.90;9.57;;;23.00;37.70;;;;;;6056688;28;83335;-67
2022/01/31 14:11:36;;;;;;;21.00;8.63;;;23.00;37.60;;;;;;6062325;28;83895;-67
2022/01/31 14:14:37;;;;;;;24.58;9.20;;;23.10;37.60;;;;;;6062248;28;80400;-67
2022/01/31 14:17:37;;;;;;;25.90;8.95;;;23.00;37.40;;;;;;6065199;28;81681;-66
2022/01/31 14:20:38;;;;;;;20.83;8.25;;;23.00;37.50;;;;;;6061913;28;80470;-66
2022/01/31 14:23:38;;;;;;;21.33;8.23;;;23.00;37.60;;;;;;6058646;28;80444;-66
2022/01/31 14:26:39;;;;;;;17.83;7.68;;;23.00;37.40;;;;;;6058514;28;81186;-67
2022/01/31 14:29:39;;;;;;;20.00;7.82;;;23.00;37.70;;;;;;6049312;28;80634;-66
2022/01/31 14:32:40;;;;;;;18.75;7.75;;;23.00;37.80;;;;;;6052911;28;80498;-68
2022/01/31 14:35:40;;;;;;;23.10;7.75;;;23.00;37.90;;;;;;6058886;28;81252;-65
2022/01/31 14:38:47;;;;;;;22.33;7.85;;;23.00;38.20;;;;;;6049442;28;82035;-70
2022/01/31 14:48:13;;;;;;;19.77;7.22;;;23.00;37.90;;;;;;6049914;28;81168;-70
2022/01/31 14:51:14;;;;;;;23.38;8.02;;;23.00;37.90;;;;;;6049373;28;83353;-71
2022/01/31 14:54:14;;;;;;;18.65;6.65;;;23.00;37.80;;;;;;6064580;28;80514;-71
2022/01/31 14:57:15;;;;;;;17.27;6.13;;;23.00;37.70;;;;;;6058820;28;81355;-69
2022/01/31 15:00:15;;;;;;;21.02;7.18;;;23.00;37.80;;;;;;6057480;28;80642;-68
2022/01/31 15:03:19;;;;;;;18.50;7.38;;;23.00;37.60;;;;;;6053225;28;80874;-67
2022/01/31 15:06:19;;;;;;;18.60;8.00;;;23.00;37.60;;;;;;6053166;28;81015;-66
2022/01/31 15:09:20;;;;;;;16.92;6.55;;;23.10;37.40;;;;;;6064334;28;80153;-67
2022/01/31 15:12:20;;;;;;;20.13;7.22;;;23.10;37.30;;;;;;6058851;28;81088;-67
2022/01/31 15:15:21;;;;;;;14.75;6.72;;;23.10;37.40;;;;;;6057603;28;81603;-66
2022/01/31 15:18:22;;;;;;;19.33;6.97;;;23.20;37.40;;;;;;6058469;28;80993;-67
2022/01/31 15:21:26;;;;;;;19.45;7.00;;;23.20;37.20;;;;;;6046543;28;80696;-66
2022/01/31 15:24:27;;;;;;;16.10;6.78;;;23.20;37.30;;;;;;6056813;28;80328;-66
2022/01/31 15:27:27;;;;;;;20.77;5.75;;;23.20;37.20;;;;;;6052207;28;80988;-66
2022/01/31 15:30:28;;;;;;;16.88;6.43;;;23.20;37.30;;;;;;6062101;28;81339;-65
2022/01/31 15:33:28;;;;;;;15.18;6.57;;;23.20;37.10;;;;;;6062098;28;80484;-66
2022/01/31 15:36:29;;;;;;;18.08;5.90;;;23.20;37.30;;;;;;6048190;28;83029;-66
2022/01/31 15:39:30;;;;;;;15.93;6.47;;;23.20;37.10;;;;;;6063265;28;80095;-66
2022/01/31 15:42:30;;;;;;;17.60;7.32;;;23.20;37.30;;;;;;6061627;28;80740;-66
2022/01/31 15:45:31;;;;;;;20.50;6.75;;;23.10;37.20;;;;;;6061993;28;80326;-66
2022/01/31 15:48:31;;;;;;;16.10;6.53;;;23.20;38.20;;;;;;6056226;28;81226;-66
2022/01/31 15:51:32;;;;;;;22.33;6.60;;;23.20;37.70;;;;;;6056300;28;80624;-67
2022/01/31 15:54:32;;;;;;;20.10;6.97;;;23.10;37.50;;;;;;6056042;28;80991;-67
2022/01/31 15:57:33;;;;;;;17.42;6.10;;;23.10;37.50;;;;;;6054826;28;80709;-64
2022/01/31 16:00:38;;;;;;;15.57;6.22;;;23.20;37.60;;;;;;6049226;28;81692;-65
2022/01/31 16:03:39;;;;;;;20.27;6.60;;;23.20;37.60;;;;;;6055216;28;81420;-64
2022/01/31 16:06:39;;;;;;;15.13;5.82;;;23.20;37.80;;;;;;6057086;28;81303;-65
2022/01/31 16:09:40;;;;;;;18.08;6.70;;;23.20;37.80;;;;;;6055921;28;80983;-67